sensor_id;sensor_type;location;lat;lon;timestamp;pressure;altitude;pressure_sealevel;temperature;humidity
64404;BME280;50726;54.912;-8.392;2023-01-25T00:01:50;102641.59;;;33.53;45.05
64404;BME280;50726;54.912;-8.392;2023-01-25T00:04:18;102647.13;;;33.82;44.51
64404;BME280;50726;54.912;-8.392;2023-01-25T00:06:44;102648.72;;;34.14;43.82
64404;BME280;50726;54.912;-8.392;2023-01-25T00:09:10;102644.59;;;31.45;48.35
64404;BME280;50726;54.912;-8.392;2023-01-25T00:11:36;102636.06;;;33.54;44.85
64404;BME280;50726;54.912;-8.392;2023-01-25T00:14:03;102631.00;;;35.07;43.00
64404;BME280;50726;54.912;-8.392;2023-01-25T00:16:29;102633.53;;;34.71;43.01
64404;BME280;50726;54.912;-8.392;2023-01-25T00:18:55;102638.78;;;33.74;43.85
64404;BME280;50726;54.912;-8.392;2023-01-25T00:21:22;102656.28;;;34.21;44.01
64404;BME280;50726;54.912;-8.392;2023-01-25T00:23:49;102647.44;;;34.09;43.45
64404;BME280;50726;54.912;-8.392;2023-01-25T00:26:15;102635.88;;;32.62;45.60
64404;BME280;50726;54.912;-8.392;2023-01-25T00:28:41;102642.16;;;32.41;46.10
64404;BME280;50726;54.912;-8.392;2023-01-25T00:31:09;102637.25;;;33.40;45.55
64404;BME280;50726;54.912;-8.392;2023-01-25T00:33:48;102634.19;;;34.93;43.88
64404;BME280;50726;54.912;-8.392;2023-01-25T00:36:31;102626.75;;;34.08;43.89
64404;BME280;50726;54.912;-8.392;2023-01-25T00:38:58;102643.53;;;33.31;44.39
64404;BME280;50726;54.912;-8.392;2023-01-25T00:41:24;102643.16;;;32.83;45.93
64404;BME280;50726;54.912;-8.392;2023-01-25T00:43:50;102628.06;;;33.21;45.13
64404;BME280;50726;54.912;-8.392;2023-01-25T00:46:17;102638.88;;;35.11;43.49
64404;BME280;50726;54.912;-8.392;2023-01-25T00:48:43;102639.47;;;33.15;45.51
64404;BME280;50726;54.912;-8.392;2023-01-25T00:51:09;102626.78;;;32.31;46.46
64404;BME280;50726;54.912;-8.392;2023-01-25T00:53:35;102626.22;;;33.63;44.37
64404;BME280;50726;54.912;-8.392;2023-01-25T00:56:00;102621.13;;;33.99;43.38
64404;BME280;50726;54.912;-8.392;2023-01-25T00:58:26;102642.59;;;33.11;45.06
64404;BME280;50726;54.912;-8.392;2023-01-25T01:00:53;102613.72;;;33.41;46.18
64404;BME280;50726;54.912;-8.392;2023-01-25T01:03:19;102630.94;;;36.10;41.53
64404;BME280;50726;54.912;-8.392;2023-01-25T01:05:45;102614.97;;;34.47;42.91
64404;BME280;50726;54.912;-8.392;2023-01-25T01:08:12;102621.69;;;35.00;43.59
64404;BME280;50726;54.912;-8.392;2023-01-25T01:10:38;102609.00;;;34.43;44.07
64404;BME280;50726;54.912;-8.392;2023-01-25T01:13:06;102597.69;;;33.88;43.95
64404;BME280;50726;54.912;-8.392;2023-01-25T01:15:36;102601.16;;;34.20;45.15
64404;BME280;50726;54.912;-8.392;2023-01-25T01:18:02;102615.81;;;33.78;44.93
64404;BME280;50726;54.912;-8.392;2023-01-25T01:20:28;102604.53;;;32.27;45.90
64404;BME280;50726;54.912;-8.392;2023-01-25T01:22:53;102576.91;;;35.04;42.44
64404;BME280;50726;54.912;-8.392;2023-01-25T01:25:22;102590.50;;;31.56;46.67
64404;BME280;50726;54.912;-8.392;2023-01-25T01:27:48;102579.19;;;31.51;48.66
64404;BME280;50726;54.912;-8.392;2023-01-25T01:30:15;102571.88;;;31.86;47.52
64404;BME280;50726;54.912;-8.392;2023-01-25T01:32:40;102574.09;;;33.08;47.20
64404;BME280;50726;54.912;-8.392;2023-01-25T01:35:06;102565.41;;;29.91;49.75
64404;BME280;50726;54.912;-8.392;2023-01-25T01:37:32;102575.34;;;29.16;51.46
64404;BME280;50726;54.912;-8.392;2023-01-25T01:39:58;102569.34;;;30.59;49.82
64404;BME280;50726;54.912;-8.392;2023-01-25T01:42:23;102591.69;;;33.24;46.64
64404;BME280;50726;54.912;-8.392;2023-01-25T01:44:51;102596.63;;;35.16;44.13
64404;BME280;50726;54.912;-8.392;2023-01-25T01:47:29;102596.28;;;34.34;44.02
64404;BME280;50726;54.912;-8.392;2023-01-25T01:50:00;102596.28;;;30.36;49.24
64404;BME280;50726;54.912;-8.392;2023-01-25T01:52:30;102578.13;;;29.27;53.04
64404;BME280;50726;54.912;-8.392;2023-01-25T01:55:10;102579.56;;;29.57;52.31
64404;BME280;50726;54.912;-8.392;2023-01-25T01:57:51;102586.19;;;30.02;51.31
64404;BME280;50726;54.912;-8.392;2023-01-25T02:00:25;102580.63;;;30.64;52.35
64404;BME280;50726;54.912;-8.392;2023-01-25T02:02:52;102598.19;;;29.60;52.40
64404;BME280;50726;54.912;-8.392;2023-01-25T02:06:01;102562.03;;;31.18;50.07
64404;BME280;50726;54.912;-8.392;2023-01-25T02:08:32;102572.59;;;28.51;54.73
64404;BME280;50726;54.912;-8.392;2023-01-25T02:11:02;102576.78;;;30.32;53.93
64404;BME280;50726;54.912;-8.392;2023-01-25T02:13:29;102577.25;;;30.37;53.46
64404;BME280;50726;54.912;-8.392;2023-01-25T02:15:56;102602.97;;;27.85;56.42
64404;BME280;50726;54.912;-8.392;2023-01-25T02:18:23;102604.66;;;28.94;53.95
64404;BME280;50726;54.912;-8.392;2023-01-25T02:20:51;102592.91;;;29.08;55.90
64404;BME280;50726;54.912;-8.392;2023-01-25T02:25:48;102564.28;;;29.58;52.81
64404;BME280;50726;54.912;-8.392;2023-01-25T02:31:04;102587.44;;;29.85;54.27
64404;BME280;50726;54.912;-8.392;2023-01-25T02:33:30;102564.47;;;28.91;55.47
64404;BME280;50726;54.912;-8.392;2023-01-25T02:36:16;102559.69;;;30.32;53.08
64404;BME280;50726;54.912;-8.392;2023-01-25T02:39:07;102547.06;;;29.21;55.09
64404;BME280;50726;54.912;-8.392;2023-01-25T02:41:42;102564.25;;;29.07;54.02
64404;BME280;50726;54.912;-8.392;2023-01-25T02:46:46;102536.44;;;31.45;52.03
64404;BME280;50726;54.912;-8.392;2023-01-25T02:49:14;102537.88;;;29.50;54.77
64404;BME280;50726;54.912;-8.392;2023-01-25T02:51:42;102518.31;;;29.59;54.07
64404;BME280;50726;54.912;-8.392;2023-01-25T02:54:10;102510.91;;;27.81;57.08
64404;BME280;50726;54.912;-8.392;2023-01-25T02:56:37;102568.03;;;27.85;58.26
64404;BME280;50726;54.912;-8.392;2023-01-25T02:59:03;102516.00;;;28.91;56.40
64404;BME280;50726;54.912;-8.392;2023-01-25T03:01:32;102543.22;;;30.12;54.00
64404;BME280;50726;54.912;-8.392;2023-01-25T03:03:58;102530.25;;;32.62;51.46
64404;BME280;50726;54.912;-8.392;2023-01-25T03:06:24;102523.66;;;30.55;53.70
64404;BME280;50726;54.912;-8.392;2023-01-25T03:08:50;102533.03;;;29.42;53.60
64404;BME280;50726;54.912;-8.392;2023-01-25T03:11:16;102548.84;;;30.56;54.00
64404;BME280;50726;54.912;-8.392;2023-01-25T03:13:42;102547.53;;;28.37;57.97
64404;BME280;50726;54.912;-8.392;2023-01-25T03:16:10;102490.28;;;29.25;57.42
64404;BME280;50726;54.912;-8.392;2023-01-25T03:18:38;102494.13;;;30.88;54.44
64404;BME280;50726;54.912;-8.392;2023-01-25T03:21:09;102528.72;;;29.02;57.61
64404;BME280;50726;54.912;-8.392;2023-01-25T03:23:36;102521.25;;;28.80;57.13
64404;BME280;50726;54.912;-8.392;2023-01-25T03:26:11;102496.72;;;29.35;56.84
64404;BME280;50726;54.912;-8.392;2023-01-25T03:28:38;102523.72;;;31.01;55.65
64404;BME280;50726;54.912;-8.392;2023-01-25T03:31:04;102508.47;;;31.67;54.11
64404;BME280;50726;54.912;-8.392;2023-01-25T03:33:31;102510.31;;;29.33;56.03
64404;BME280;50726;54.912;-8.392;2023-01-25T03:35:57;102528.00;;;30.22;55.88
64404;BME280;50726;54.912;-8.392;2023-01-25T03:38:23;102514.31;;;30.25;55.59
64404;BME280;50726;54.912;-8.392;2023-01-25T03:40:49;102513.19;;;30.28;54.90
64404;BME280;50726;54.912;-8.392;2023-01-25T03:43:16;102527.84;;;29.77;61.64
64404;BME280;50726;54.912;-8.392;2023-01-25T03:45:42;102545.53;;;29.30;56.27
64404;BME280;50726;54.912;-8.392;2023-01-25T03:48:09;102512.13;;;30.06;57.14
64404;BME280;50726;54.912;-8.392;2023-01-25T03:50:35;102543.50;;;29.71;57.75
64404;BME280;50726;54.912;-8.392;2023-01-25T03:53:01;102548.72;;;28.59;60.12
64404;BME280;50726;54.912;-8.392;2023-01-25T03:55:32;102519.75;;;29.77;58.26
64404;BME280;50726;54.912;-8.392;2023-01-25T03:57:58;102531.78;;;30.08;56.19
64404;BME280;50726;54.912;-8.392;2023-01-25T04:00:23;102524.25;;;29.14;58.04
64404;BME280;50726;54.912;-8.392;2023-01-25T04:02:50;102536.63;;;29.17;59.92
64404;BME280;50726;54.912;-8.392;2023-01-25T04:05:17;102521.31;;;30.04;57.18
64404;BME280;50726;54.912;-8.392;2023-01-25T04:07:44;102517.16;;;29.13;59.96
64404;BME280;50726;54.912;-8.392;2023-01-25T04:10:10;102513.78;;;29.23;60.94
64404;BME280;50726;54.912;-8.392;2023-01-25T04:12:35;102527.75;;;29.90;58.10
64404;BME280;50726;54.912;-8.392;2023-01-25T04:15:01;102543.44;;;29.10;60.38
64404;BME280;50726;54.912;-8.392;2023-01-25T04:17:27;102521.38;;;29.42;58.41
64404;BME280;50726;54.912;-8.392;2023-01-25T04:19:52;102504.13;;;28.94;60.18
64404;BME280;50726;54.912;-8.392;2023-01-25T04:22:20;102520.75;;;29.76;59.30
64404;BME280;50726;54.912;-8.392;2023-01-25T04:24:45;102538.91;;;28.45;59.51
64404;BME280;50726;54.912;-8.392;2023-01-25T04:27:11;102538.16;;;28.30;61.74
64404;BME280;50726;54.912;-8.392;2023-01-25T04:29:37;102534.16;;;28.36;61.97
64404;BME280;50726;54.912;-8.392;2023-01-25T04:32:02;102542.19;;;29.53;59.32
64404;BME280;50726;54.912;-8.392;2023-01-25T04:34:28;102549.19;;;29.05;61.41
64404;BME280;50726;54.912;-8.392;2023-01-25T04:36:54;102546.59;;;28.64;60.15
64404;BME280;50726;54.912;-8.392;2023-01-25T04:39:19;102539.69;;;28.73;60.88
64404;BME280;50726;54.912;-8.392;2023-01-25T04:41:45;102515.72;;;28.17;62.28
64404;BME280;50726;54.912;-8.392;2023-01-25T04:44:11;102531.47;;;28.23;62.28
64404;BME280;50726;54.912;-8.392;2023-01-25T04:46:36;102527.94;;;28.35;62.37
64404;BME280;50726;54.912;-8.392;2023-01-25T04:49:02;102526.84;;;28.51;60.54
64404;BME280;50726;54.912;-8.392;2023-01-25T04:51:28;102509.44;;;28.03;63.56
64404;BME280;50726;54.912;-8.392;2023-01-25T04:53:53;102513.91;;;29.21;61.23
64404;BME280;50726;54.912;-8.392;2023-01-25T04:56:19;102526.31;;;28.59;62.29
64404;BME280;50726;54.912;-8.392;2023-01-25T04:58:45;102520.72;;;28.75;61.02
64404;BME280;50726;54.912;-8.392;2023-01-25T05:01:11;102502.28;;;29.45;60.96
64404;BME280;50726;54.912;-8.392;2023-01-25T05:03:36;102459.09;;;27.92;61.61
64404;BME280;50726;54.912;-8.392;2023-01-25T05:06:02;102499.84;;;28.91;61.85
64404;BME280;50726;54.912;-8.392;2023-01-25T05:08:28;102496.94;;;28.43;64.26
64404;BME280;50726;54.912;-8.392;2023-01-25T05:10:53;102493.97;;;29.24;60.78
64404;BME280;50726;54.912;-8.392;2023-01-25T05:13:19;102497.84;;;29.19;60.88
64404;BME280;50726;54.912;-8.392;2023-01-25T05:15:45;102494.84;;;28.85;62.47
64404;BME280;50726;54.912;-8.392;2023-01-25T05:18:11;102505.75;;;28.58;62.43
64404;BME280;50726;54.912;-8.392;2023-01-25T05:20:38;102478.91;;;28.04;66.17
64404;BME280;50726;54.912;-8.392;2023-01-25T05:23:04;102488.59;;;30.67;60.57
64404;BME280;50726;54.912;-8.392;2023-01-25T05:25:29;102485.63;;;28.89;62.04
64404;BME280;50726;54.912;-8.392;2023-01-25T05:28:13;102485.66;;;27.97;64.21
64404;BME280;50726;54.912;-8.392;2023-01-25T05:30:39;102491.00;;;28.37;65.36
64404;BME280;50726;54.912;-8.392;2023-01-25T05:33:05;102499.31;;;28.47;65.66
64404;BME280;50726;54.912;-8.392;2023-01-25T05:35:30;102483.19;;;27.94;66.02
64404;BME280;50726;54.912;-8.392;2023-01-25T05:37:57;102489.44;;;28.07;66.96
64404;BME280;50726;54.912;-8.392;2023-01-25T05:40:24;102488.00;;;28.81;67.20
64404;BME280;50726;54.912;-8.392;2023-01-25T05:42:57;102483.97;;;29.86;61.44
64404;BME280;50726;54.912;-8.392;2023-01-25T05:45:24;102500.19;;;30.22;59.61
64404;BME280;50726;54.912;-8.392;2023-01-25T05:47:55;102495.03;;;29.83;59.36
64404;BME280;50726;54.912;-8.392;2023-01-25T05:50:22;102488.03;;;30.16;58.13
64404;BME280;50726;54.912;-8.392;2023-01-25T05:52:49;102491.75;;;31.73;55.24
64404;BME280;50726;54.912;-8.392;2023-01-25T05:55:14;102485.28;;;30.98;56.77
64404;BME280;50726;54.912;-8.392;2023-01-25T05:57:40;102484.44;;;30.74;56.39
64404;BME280;50726;54.912;-8.392;2023-01-25T06:00:07;102462.00;;;33.10;54.00
64404;BME280;50726;54.912;-8.392;2023-01-25T06:02:33;102481.69;;;30.40;55.32
64404;BME280;50726;54.912;-8.392;2023-01-25T06:04:59;102478.75;;;30.54;55.13
64404;BME280;50726;54.912;-8.392;2023-01-25T06:07:25;102486.63;;;30.69;55.30
64404;BME280;50726;54.912;-8.392;2023-01-25T06:09:51;102484.69;;;30.94;54.53
64404;BME280;50726;54.912;-8.392;2023-01-25T06:12:20;102484.16;;;30.66;55.73
64404;BME280;50726;54.912;-8.392;2023-01-25T06:14:48;102481.31;;;30.33;56.21
64404;BME280;50726;54.912;-8.392;2023-01-25T06:17:14;102496.13;;;29.18;55.89
64404;BME280;50726;54.912;-8.392;2023-01-25T06:19:39;102490.00;;;29.90;56.57
64404;BME280;50726;54.912;-8.392;2023-01-25T06:22:06;102489.25;;;30.12;56.05
64404;BME280;50726;54.912;-8.392;2023-01-25T06:24:33;102488.44;;;30.34;56.46
64404;BME280;50726;54.912;-8.392;2023-01-25T06:26:59;102487.09;;;29.68;55.92
64404;BME280;50726;54.912;-8.392;2023-01-25T06:29:24;102490.09;;;30.83;55.25
64404;BME280;50726;54.912;-8.392;2023-01-25T06:31:50;102494.94;;;30.32;55.98
64404;BME280;50726;54.912;-8.392;2023-01-25T06:34:16;102486.22;;;31.19;53.68
64404;BME280;50726;54.912;-8.392;2023-01-25T06:36:42;102507.78;;;30.17;55.16
64404;BME280;50726;54.912;-8.392;2023-01-25T06:39:07;102516.03;;;30.38;54.75
64404;BME280;50726;54.912;-8.392;2023-01-25T06:41:37;102524.84;;;30.28;55.87
64404;BME280;50726;54.912;-8.392;2023-01-25T06:44:03;102526.25;;;31.26;53.53
64404;BME280;50726;54.912;-8.392;2023-01-25T06:46:31;102521.47;;;30.02;55.03
64404;BME280;50726;54.912;-8.392;2023-01-25T06:48:57;102504.56;;;29.14;55.83
64404;BME280;50726;54.912;-8.392;2023-01-25T06:51:24;102498.69;;;29.82;55.22
64404;BME280;50726;54.912;-8.392;2023-01-25T06:53:51;102512.44;;;29.90;56.46
64404;BME280;50726;54.912;-8.392;2023-01-25T06:56:20;102520.19;;;30.31;55.59
64404;BME280;50726;54.912;-8.392;2023-01-25T06:58:46;102510.59;;;30.15;55.09
64404;BME280;50726;54.912;-8.392;2023-01-25T07:01:18;102510.84;;;30.12;54.61
64404;BME280;50726;54.912;-8.392;2023-01-25T07:03:52;102519.19;;;29.96;53.94
64404;BME280;50726;54.912;-8.392;2023-01-25T07:06:22;102507.75;;;29.19;54.64
64404;BME280;50726;54.912;-8.392;2023-01-25T07:09:03;102508.66;;;30.17;54.12
64404;BME280;50726;54.912;-8.392;2023-01-25T07:11:29;102518.81;;;30.95;52.40
64404;BME280;50726;54.912;-8.392;2023-01-25T07:14:01;102517.28;;;30.45;52.31
64404;BME280;50726;54.912;-8.392;2023-01-25T07:16:29;102529.13;;;28.04;54.76
64404;BME280;50726;54.912;-8.392;2023-01-25T07:19:09;102539.69;;;29.50;52.81
64404;BME280;50726;54.912;-8.392;2023-01-25T07:21:39;102521.22;;;30.41;51.69
64404;BME280;50726;54.912;-8.392;2023-01-25T07:24:05;102529.97;;;29.47;50.71
64404;BME280;50726;54.912;-8.392;2023-01-25T07:26:31;102535.44;;;29.21;51.76
64404;BME280;50726;54.912;-8.392;2023-01-25T07:28:57;102531.50;;;29.14;51.35
64404;BME280;50726;54.912;-8.392;2023-01-25T07:31:26;102545.28;;;28.83;51.09
64404;BME280;50726;54.912;-8.392;2023-01-25T07:33:55;102559.50;;;28.85;52.00
64404;BME280;50726;54.912;-8.392;2023-01-25T07:36:24;102559.69;;;28.30;53.01
64404;BME280;50726;54.912;-8.392;2023-01-25T07:38:54;102553.38;;;28.83;52.16
64404;BME280;50726;54.912;-8.392;2023-01-25T07:41:22;102569.41;;;29.11;51.09
64404;BME280;50726;54.912;-8.392;2023-01-25T07:43:50;102566.63;;;28.99;51.06
64404;BME280;50726;54.912;-8.392;2023-01-25T07:46:20;102564.22;;;29.20;49.89
64404;BME280;50726;54.912;-8.392;2023-01-25T07:48:51;102555.75;;;30.00;49.52
64404;BME280;50726;54.912;-8.392;2023-01-25T07:51:24;102570.34;;;28.84;49.26
64404;BME280;50726;54.912;-8.392;2023-01-25T07:54:01;102558.38;;;29.27;49.63
64404;BME280;50726;54.912;-8.392;2023-01-25T07:56:42;102583.28;;;30.41;48.64
64404;BME280;50726;54.912;-8.392;2023-01-25T07:59:09;102606.09;;;28.60;48.18
64404;BME280;50726;54.912;-8.392;2023-01-25T08:01:48;102613.78;;;29.18;49.84
64404;BME280;50726;54.912;-8.392;2023-01-25T08:04:14;102604.34;;;28.05;49.38
64404;BME280;50726;54.912;-8.392;2023-01-25T08:06:39;102616.75;;;27.22;51.93
64404;BME280;50726;54.912;-8.392;2023-01-25T08:09:16;102608.53;;;28.90;49.38
64404;BME280;50726;54.912;-8.392;2023-01-25T08:11:46;102618.53;;;28.07;50.62
64404;BME280;50726;54.912;-8.392;2023-01-25T08:14:15;102601.97;;;28.94;49.17
64404;BME280;50726;54.912;-8.392;2023-01-25T08:16:42;102589.75;;;28.63;49.05
64404;BME280;50726;54.912;-8.392;2023-01-25T08:19:09;102593.94;;;28.54;50.46
64404;BME280;50726;54.912;-8.392;2023-01-25T08:21:42;102605.97;;;28.35;49.33
64404;BME280;50726;54.912;-8.392;2023-01-25T08:24:11;102609.78;;;28.72;48.71
64404;BME280;50726;54.912;-8.392;2023-01-25T08:26:37;102603.47;;;28.32;48.29
64404;BME280;50726;54.912;-8.392;2023-01-25T08:29:06;102606.13;;;29.88;47.73
64404;BME280;50726;54.912;-8.392;2023-01-25T08:31:34;102594.91;;;30.06;45.79
64404;BME280;50726;54.912;-8.392;2023-01-25T08:34:13;102615.50;;;29.58;46.85
64404;BME280;50726;54.912;-8.392;2023-01-25T08:36:39;102597.13;;;29.63;46.89
64404;BME280;50726;54.912;-8.392;2023-01-25T08:39:08;102607.88;;;29.13;48.14
64404;BME280;50726;54.912;-8.392;2023-01-25T08:41:40;102615.69;;;27.96;49.69
64404;BME280;50726;54.912;-8.392;2023-01-25T08:44:08;102620.94;;;29.06;49.04
64404;BME280;50726;54.912;-8.392;2023-01-25T08:46:42;102612.25;;;30.50;47.28
64404;BME280;50726;54.912;-8.392;2023-01-25T08:49:10;102615.63;;;28.25;48.55
64404;BME280;50726;54.912;-8.392;2023-01-25T08:51:35;102627.94;;;28.42;49.11
64404;BME280;50726;54.912;-8.392;2023-01-25T08:54:09;102640.84;;;27.67;50.47
64404;BME280;50726;54.912;-8.392;2023-01-25T08:56:39;102657.56;;;26.05;53.50
64404;BME280;50726;54.912;-8.392;2023-01-25T08:59:09;102643.63;;;27.22;53.38
64404;BME280;50726;54.912;-8.392;2023-01-25T09:01:35;102634.97;;;27.46;52.18
64404;BME280;50726;54.912;-8.392;2023-01-25T09:04:01;102640.56;;;28.67;49.91
64404;BME280;50726;54.912;-8.392;2023-01-25T09:06:28;102637.75;;;30.46;48.38
64404;BME280;50726;54.912;-8.392;2023-01-25T09:08:58;102640.16;;;30.26;46.18
64404;BME280;50726;54.912;-8.392;2023-01-25T09:11:24;102630.38;;;28.86;48.24
64404;BME280;50726;54.912;-8.392;2023-01-25T09:13:55;102645.81;;;31.41;46.06
64404;BME280;50726;54.912;-8.392;2023-01-25T09:16:23;102670.28;;;27.54;50.63
64404;BME280;50726;54.912;-8.392;2023-01-25T09:19:04;102695.00;;;28.45;49.92
64404;BME280;50726;54.912;-8.392;2023-01-25T09:21:32;102671.84;;;28.00;50.75
64404;BME280;50726;54.912;-8.392;2023-01-25T09:23:59;102680.44;;;27.49;51.44
64404;BME280;50726;54.912;-8.392;2023-01-25T09:26:24;102682.50;;;26.70;51.04
64404;BME280;50726;54.912;-8.392;2023-01-25T09:28:52;102688.59;;;28.33;49.03
64404;BME280;50726;54.912;-8.392;2023-01-25T09:31:18;102687.28;;;27.84;48.73
64404;BME280;50726;54.912;-8.392;2023-01-25T09:33:45;102663.56;;;27.76;48.69
64404;BME280;50726;54.912;-8.392;2023-01-25T09:36:11;102662.41;;;29.29;46.36
64404;BME280;50726;54.912;-8.392;2023-01-25T09:38:36;102652.44;;;30.31;45.46
64404;BME280;50726;54.912;-8.392;2023-01-25T09:46:55;102663.00;;;31.40;42.62
64404;BME280;50726;54.912;-8.392;2023-01-25T09:49:30;102671.28;;;29.82;43.65
64404;BME280;50726;54.912;-8.392;2023-01-25T09:52:47;102663.63;;;31.43;42.00
64404;BME280;50726;54.912;-8.392;2023-01-25T09:55:22;102665.53;;;30.95;42.99
64404;BME280;50726;54.912;-8.392;2023-01-25T09:57:50;102675.25;;;30.98;43.15
64404;BME280;50726;54.912;-8.392;2023-01-25T10:00:22;102679.97;;;30.36;44.37
64404;BME280;50726;54.912;-8.392;2023-01-25T10:03:00;102662.47;;;30.28;45.24
64404;BME280;50726;54.912;-8.392;2023-01-25T10:05:39;102674.88;;;30.07;45.66
64404;BME280;50726;54.912;-8.392;2023-01-25T10:10:57;102675.16;;;29.91;45.35
64404;BME280;50726;54.912;-8.392;2023-01-25T10:13:24;102684.78;;;30.06;44.77
64404;BME280;50726;54.912;-8.392;2023-01-25T10:16:01;102679.50;;;30.42;44.51
64404;BME280;50726;54.912;-8.392;2023-01-25T10:26:43;102704.22;;;30.96;45.40
64404;BME280;50726;54.912;-8.392;2023-01-25T10:29:22;102708.59;;;30.50;45.12
64404;BME280;50726;54.912;-8.392;2023-01-25T10:31:54;102706.53;;;31.37;44.58
64404;BME280;50726;54.912;-8.392;2023-01-25T10:34:23;102712.09;;;30.63;45.73
64404;BME280;50726;54.912;-8.392;2023-01-25T10:36:56;102709.28;;;30.16;45.25
64404;BME280;50726;54.912;-8.392;2023-01-25T10:39:28;102717.47;;;31.58;44.46
64404;BME280;50726;54.912;-8.392;2023-01-25T10:42:05;102710.09;;;30.78;44.72
64404;BME280;50726;54.912;-8.392;2023-01-25T10:44:34;102724.16;;;28.93;44.52
64404;BME280;50726;54.912;-8.392;2023-01-25T10:47:10;102736.19;;;28.88;44.96
64404;BME280;50726;54.912;-8.392;2023-01-25T10:49:47;102722.63;;;30.66;42.50
64404;BME280;50726;54.912;-8.392;2023-01-25T10:52:16;102733.63;;;30.27;43.75
64404;BME280;50726;54.912;-8.392;2023-01-25T10:54:42;102746.16;;;29.39;43.07
64404;BME280;50726;54.912;-8.392;2023-01-25T10:57:13;102743.16;;;29.44;42.80
64404;BME280;50726;54.912;-8.392;2023-01-25T10:59:47;102745.19;;;29.40;42.12
64404;BME280;50726;54.912;-8.392;2023-01-25T11:02:46;102740.88;;;30.27;42.16
64404;BME280;50726;54.912;-8.392;2023-01-25T11:07:51;102753.97;;;32.09;41.23
64404;BME280;50726;54.912;-8.392;2023-01-25T11:15:50;102775.16;;;27.69;46.74
64404;BME280;50726;54.912;-8.392;2023-01-25T11:18:28;102761.56;;;28.28;45.40
64404;BME280;50726;54.912;-8.392;2023-01-25T11:21:20;102764.41;;;28.67;43.69
64404;BME280;50726;54.912;-8.392;2023-01-25T11:24:14;102758.25;;;29.46;41.70
64404;BME280;50726;54.912;-8.392;2023-01-25T11:26:44;102788.56;;;27.83;44.83
64404;BME280;50726;54.912;-8.392;2023-01-25T11:29:11;102766.50;;;27.64;43.96
64404;BME280;50726;54.912;-8.392;2023-01-25T11:31:38;102778.47;;;27.13;45.36
64404;BME280;50726;54.912;-8.392;2023-01-25T11:34:09;102769.41;;;30.05;42.59
64404;BME280;50726;54.912;-8.392;2023-01-25T11:44:48;102764.06;;;29.40;40.84
64404;BME280;50726;54.912;-8.392;2023-01-25T11:50:40;102760.41;;;29.80;41.15
64404;BME280;50726;54.912;-8.392;2023-01-25T11:56:00;102773.00;;;30.43;40.78
64404;BME280;50726;54.912;-8.392;2023-01-25T11:59:07;102785.38;;;29.30;40.79
64404;BME280;50726;54.912;-8.392;2023-01-25T12:01:49;102791.84;;;30.56;40.44
64404;BME280;50726;54.912;-8.392;2023-01-25T12:10:02;102782.66;;;29.58;40.91
64404;BME280;50726;54.912;-8.392;2023-01-25T12:18:44;102796.63;;;29.76;39.47
64404;BME280;50726;54.912;-8.392;2023-01-25T12:25:19;102777.03;;;29.74;39.38
64404;BME280;50726;54.912;-8.392;2023-01-25T12:35:09;102782.09;;;29.53;39.61
64404;BME280;50726;54.912;-8.392;2023-01-25T12:37:42;102775.84;;;28.44;42.08
64404;BME280;50726;54.912;-8.392;2023-01-25T12:40:18;102778.47;;;29.13;40.32
64404;BME280;50726;54.912;-8.392;2023-01-25T12:42:52;102767.06;;;28.82;41.31
64404;BME280;50726;54.912;-8.392;2023-01-25T12:45:31;102772.53;;;28.25;42.42
64404;BME280;50726;54.912;-8.392;2023-01-25T12:48:31;102771.56;;;28.26;42.19
64404;BME280;50726;54.912;-8.392;2023-01-25T12:50:59;102773.69;;;29.04;40.40
64404;BME280;50726;54.912;-8.392;2023-01-25T12:53:44;102765.00;;;30.41;39.19
64404;BME280;50726;54.912;-8.392;2023-01-25T12:56:41;102778.56;;;28.14;40.81
64404;BME280;50726;54.912;-8.392;2023-01-25T13:02:01;102757.34;;;29.85;39.74
64404;BME280;50726;54.912;-8.392;2023-01-25T13:04:58;102776.22;;;29.33;41.98
64404;BME280;50726;54.912;-8.392;2023-01-25T13:07:35;102752.63;;;28.83;42.74
64404;BME280;50726;54.912;-8.392;2023-01-25T13:10:24;102763.28;;;30.40;41.09
64404;BME280;50726;54.912;-8.392;2023-01-25T13:12:58;102767.66;;;29.00;42.71
64404;BME280;50726;54.912;-8.392;2023-01-25T13:15:42;102771.72;;;27.51;41.94
64404;BME280;50726;54.912;-8.392;2023-01-25T13:18:35;102779.00;;;28.50;40.15
64404;BME280;50726;54.912;-8.392;2023-01-25T13:21:04;102786.41;;;29.02;40.43
64404;BME280;50726;54.912;-8.392;2023-01-25T13:23:43;102780.94;;;30.20;40.16
64404;BME280;50726;54.912;-8.392;2023-01-25T13:26:36;102783.44;;;29.45;40.28
64404;BME280;50726;54.912;-8.392;2023-01-25T13:29:02;102774.84;;;27.59;41.06
64404;BME280;50726;54.912;-8.392;2023-01-25T13:31:43;102774.38;;;29.07;40.00
64404;BME280;50726;54.912;-8.392;2023-01-25T13:34:12;102782.88;;;29.14;40.86
64404;BME280;50726;54.912;-8.392;2023-01-25T13:44:36;102767.47;;;31.29;40.19
64404;BME280;50726;54.912;-8.392;2023-01-25T13:47:16;102769.16;;;29.58;40.53
64404;BME280;50726;54.912;-8.392;2023-01-25T13:52:18;102766.31;;;29.46;40.96
64404;BME280;50726;54.912;-8.392;2023-01-25T13:54:46;102777.66;;;27.86;42.11
64404;BME280;50726;54.912;-8.392;2023-01-25T13:57:17;102781.09;;;30.43;40.18
64404;BME280;50726;54.912;-8.392;2023-01-25T13:59:44;102782.94;;;28.45;41.70
64404;BME280;50726;54.912;-8.392;2023-01-25T14:02:18;102780.72;;;28.51;41.40
64404;BME280;50726;54.912;-8.392;2023-01-25T14:04:49;102789.44;;;26.77;43.66
64404;BME280;50726;54.912;-8.392;2023-01-25T14:07:21;102783.16;;;27.40;43.87
64404;BME280;50726;54.912;-8.392;2023-01-25T14:09:49;102779.81;;;27.94;43.22
64404;BME280;50726;54.912;-8.392;2023-01-25T14:12:32;102780.00;;;29.17;42.29
64404;BME280;50726;54.912;-8.392;2023-01-25T14:15:19;102782.34;;;28.54;42.20
64404;BME280;50726;54.912;-8.392;2023-01-25T14:17:46;102783.06;;;29.78;42.03
64404;BME280;50726;54.912;-8.392;2023-01-25T14:20:28;102788.81;;;29.19;42.11